createdAt,value
2022-11-25T00:00:29.112Z,14.4
2022-11-25T00:01:45.222Z,14.4
2022-11-25T00:03:01.485Z,14.4
2022-11-25T00:04:17.684Z,14.4
2022-11-25T00:05:32.886Z,14.4
2022-11-25T00:06:49.079Z,14.4
2022-11-25T00:08:05.268Z,14.4
2022-11-25T00:09:21.454Z,14.4
2022-11-25T00:10:37.549Z,14.4
2022-11-25T00:11:53.829Z,14.4
2022-11-25T00:13:10.012Z,14.4
2022-11-25T00:14:26.113Z,14.4
2022-11-25T00:15:42.397Z,14.4
2022-11-25T00:16:58.581Z,14.4
2022-11-25T00:18:14.780Z,14.4
2022-11-25T00:19:30.975Z,14.4
2022-11-25T00:20:47.159Z,14.4
2022-11-25T00:22:02.360Z,14.4
2022-11-25T00:23:18.542Z,14.4
2022-11-25T00:24:34.732Z,14.4
2022-11-25T00:25:50.920Z,14.4
2022-11-25T00:27:07.116Z,14.4
2022-11-25T00:28:23.212Z,14.4
2022-11-25T00:29:39.497Z,14.4
2022-11-25T00:30:55.684Z,14.4
2022-11-25T00:32:11.864Z,14.4
2022-11-25T00:33:27.976Z,14.3
2022-11-25T00:34:44.257Z,14.4
2022-11-25T00:36:00.442Z,14.4
2022-11-25T00:37:16.618Z,14.4
2022-11-25T00:38:31.835Z,14.3
2022-11-25T00:39:47.918Z,14.4
2022-11-25T00:41:04.213Z,14.4
2022-11-25T00:42:20.404Z,14.4
2022-11-25T00:43:36.490Z,14.4
2022-11-25T00:44:52.785Z,14.4
2022-11-25T00:46:08.975Z,14.4
2022-11-25T00:47:25.158Z,14.4
2022-11-25T00:48:41.248Z,14.3
2022-11-25T00:49:57.431Z,14.3
2022-11-25T00:51:13.718Z,14.3
2022-11-25T00:52:29.805Z,14.3
2022-11-25T00:53:46.008Z,14.3
2022-11-25T00:55:01.305Z,14.3
2022-11-25T00:56:17.491Z,14.3
2022-11-25T00:57:33.681Z,14.4
2022-11-25T00:58:49.875Z,14.3
2022-11-25T01:00:06.065Z,14.4
2022-11-25T01:01:22.146Z,14.4
2022-11-25T01:02:37.368Z,14.4
2022-11-25T01:03:53.545Z,14.4
2022-11-25T01:05:09.744Z,14.3
2022-11-25T01:06:25.929Z,14.4
2022-11-25T01:07:42.109Z,14.4
2022-11-25T01:08:58.413Z,14.4
2022-11-25T01:10:14.588Z,14.4
2022-11-25T01:11:30.797Z,14.3
2022-11-25T01:12:46.973Z,14.3
2022-11-25T01:14:03.060Z,14.3
2022-11-25T01:15:19.348Z,14.3
2022-11-25T01:16:35.436Z,14.3
2022-11-25T01:17:51.631Z,14.4
2022-11-25T01:19:06.946Z,14.3
2022-11-25T01:20:23.129Z,14.4
2022-11-25T01:21:39.313Z,14.4
2022-11-25T01:22:55.515Z,14.3
2022-11-25T01:24:11.702Z,14.4
2022-11-25T01:25:27.884Z,14.4
2022-11-25T01:26:43.959Z,14.4
2022-11-25T01:28:00.254Z,14.3
2022-11-25T01:29:16.449Z,14.3
2022-11-25T01:30:32.534Z,14.3
2022-11-25T01:31:48.826Z,14.3
2022-11-25T01:33:05.016Z,14.3
2022-11-25T01:34:21.096Z,14.3
2022-11-25T01:35:36.410Z,14.3
2022-11-25T01:36:52.609Z,14.3
2022-11-25T01:38:08.801Z,14.3
2022-11-25T01:39:24.863Z,14.3
2022-11-25T01:40:41.179Z,14.3
2022-11-25T01:41:57.356Z,14.3
2022-11-25T01:43:13.435Z,14.3
2022-11-25T01:44:29.745Z,14.3
2022-11-25T01:45:45.932Z,14.3
2022-11-25T01:47:02.000Z,14.3
2022-11-25T01:48:18.305Z,14.3
2022-11-25T01:49:34.384Z,14.3
2022-11-25T01:50:50.689Z,14.3
2022-11-25T01:52:05.774Z,14.3
2022-11-25T01:53:22.089Z,14.3
2022-11-25T01:54:38.273Z,14.3
2022-11-25T01:55:54.356Z,14.3
2022-11-25T01:57:10.529Z,14.3
2022-11-25T01:58:26.834Z,14.3
2022-11-25T01:59:43.022Z,14.3
2022-11-25T02:00:59.218Z,14.3
2022-11-25T02:02:15.295Z,14.3
2022-11-25T02:03:31.600Z,14.3
2022-11-25T02:04:47.790Z,14.3
2022-11-25T02:06:03.985Z,14.3
2022-11-25T02:07:20.172Z,14.3
2022-11-25T02:08:35.263Z,14.3
2022-11-25T02:09:51.561Z,14.3
2022-11-25T02:11:07.739Z,14.3
2022-11-25T02:12:23.826Z,14.3
2022-11-25T02:13:40.126Z,14.3
2022-11-25T02:14:56.307Z,14.3
2022-11-25T02:16:12.513Z,14.3
2022-11-25T02:17:28.697Z,14.3
2022-11-25T02:18:44.878Z,14.3
2022-11-25T02:20:01.079Z,14.3
2022-11-25T02:21:17.137Z,14.3
2022-11-25T02:22:33.444Z,14.3
2022-11-25T02:23:49.650Z,14.3
2022-11-25T02:25:04.842Z,14.3
2022-11-25T02:26:21.043Z,14.3
2022-11-25T02:27:37.219Z,14.4
2022-11-25T02:28:53.418Z,14.4
2022-11-25T02:30:09.486Z,14.4
2022-11-25T02:31:25.792Z,14.4
2022-11-25T02:32:41.856Z,14.4
2022-11-25T02:33:58.059Z,14.4
2022-11-25T02:35:14.243Z,14.4
2022-11-25T02:36:30.559Z,14.4
2022-11-25T02:37:46.731Z,14.5
2022-11-25T02:39:02.928Z,14.5
2022-11-25T02:40:19.121Z,14.5
2022-11-25T02:41:34.331Z,14.5
2022-11-25T02:42:50.384Z,14.5
2022-11-25T02:44:06.703Z,14.5
2022-11-25T02:45:22.885Z,14.6
2022-11-25T02:46:38.960Z,14.6
2022-11-25T02:47:55.141Z,14.6
2022-11-25T02:49:11.463Z,14.6
2022-11-25T02:50:27.652Z,14.6
2022-11-25T02:51:43.837Z,14.6
2022-11-25T02:53:00.023Z,14.5
2022-11-25T02:54:16.221Z,14.6
2022-11-25T02:55:32.289Z,14.6
2022-11-25T02:56:48.463Z,14.5
2022-11-25T02:58:03.677Z,14.5
2022-11-25T02:59:19.993Z,14.5
2022-11-25T03:00:36.185Z,14.5
2022-11-25T03:01:52.374Z,14.5
2022-11-25T03:03:08.557Z,14.5
2022-11-25T03:04:24.739Z,14.5
2022-11-25T03:05:40.928Z,14.5
2022-11-25T03:06:57.134Z,14.5
2022-11-25T03:08:13.307Z,14.5
2022-11-25T03:09:29.499Z,14.5
2022-11-25T03:10:45.687Z,14.5
2022-11-25T03:12:01.753Z,14.5
2022-11-25T03:13:17.940Z,14.5
2022-11-25T03:14:33.274Z,14.5
2022-11-25T03:15:49.461Z,14.5
2022-11-25T03:17:05.649Z,14.5
2022-11-25T03:18:21.836Z,14.5
2022-11-25T03:19:37.906Z,14.5
2022-11-25T03:20:54.225Z,14.5
2022-11-25T03:22:10.407Z,14.5
2022-11-25T03:23:26.602Z,14.5
2022-11-25T03:24:42.658Z,14.5
2022-11-25T03:25:58.838Z,14.5
2022-11-25T03:27:15.169Z,14.5
2022-11-25T03:28:31.218Z,14.5
2022-11-25T03:29:47.539Z,14.5
2022-11-25T03:31:02.763Z,14.5
2022-11-25T03:32:18.810Z,14.4
2022-11-25T03:33:35.132Z,14.4
2022-11-25T03:34:51.316Z,14.5
2022-11-25T03:36:07.383Z,14.4
2022-11-25T03:38:39.745Z,14.4
2022-11-25T03:39:56.080Z,14.4
2022-11-25T03:41:12.139Z,14.4
2022-11-25T03:42:28.462Z,14.4
2022-11-25T03:43:44.647Z,14.4
2022-11-25T03:45:00.839Z,14.4
2022-11-25T03:46:17.025Z,14.4
2022-11-25T03:47:32.222Z,14.4
2022-11-25T03:48:48.421Z,14.4
2022-11-25T03:50:04.618Z,14.4
2022-11-25T03:51:20.656Z,14.4
2022-11-25T03:52:36.995Z,14.4
2022-11-25T03:53:53.183Z,14.4
2022-11-25T03:55:09.372Z,14.4
2022-11-25T03:56:25.554Z,14.4
2022-11-25T03:57:41.737Z,14.4
2022-11-25T03:58:57.942Z,14.4
2022-11-25T04:00:14.120Z,14.4
2022-11-25T04:01:30.310Z,14.4
2022-11-25T04:02:46.351Z,14.4
2022-11-25T04:04:01.563Z,14.4
2022-11-25T04:05:17.901Z,14.4
2022-11-25T04:06:33.932Z,14.4
2022-11-25T04:07:50.267Z,14.4
2022-11-25T04:09:06.308Z,14.4
2022-11-25T04:10:22.650Z,14.4
2022-11-25T04:11:38.848Z,14.4
2022-11-25T04:12:55.020Z,14.4
2022-11-25T04:14:11.081Z,14.4
2022-11-25T04:15:27.264Z,14.4
2022-11-25T04:16:43.601Z,14.4
2022-11-25T04:17:59.785Z,14.4
2022-11-25T04:19:15.969Z,14.4
2022-11-25T04:20:31.181Z,14.4
2022-11-25T04:21:47.363Z,14.4
2022-11-25T04:23:03.549Z,14.4
2022-11-25T04:24:19.750Z,14.4
2022-11-25T04:25:35.944Z,14.4
2022-11-25T04:26:51.984Z,14.4
2022-11-25T04:28:08.161Z,14.4
2022-11-25T04:29:24.514Z,14.4
2022-11-25T04:30:40.547Z,14.4
2022-11-25T04:31:56.874Z,14.4
2022-11-25T04:33:13.069Z,14.4
2022-11-25T04:34:29.262Z,14.4
2022-11-25T04:35:45.446Z,14.4
2022-11-25T04:37:00.659Z,14.4
2022-11-25T04:38:16.848Z,14.4
2022-11-25T04:39:33.038Z,14.4
2022-11-25T04:40:49.076Z,14.4
2022-11-25T04:42:05.418Z,14.4
2022-11-25T04:43:21.595Z,14.4
2022-11-25T04:44:37.639Z,14.4
2022-11-25T04:45:53.979Z,14.4
2022-11-25T04:47:10.158Z,14.4
2022-11-25T04:48:26.355Z,14.4
2022-11-25T04:49:42.547Z,14.4
2022-11-25T04:50:58.739Z,14.4
2022-11-25T04:52:14.918Z,14.4
2022-11-25T04:53:29.972Z,14.4
2022-11-25T04:54:46.320Z,14.4
2022-11-25T04:56:02.515Z,14.4
2022-11-25T04:57:18.700Z,14.4
2022-11-25T04:58:34.719Z,14.4
2022-11-25T04:59:50.921Z,14.4
2022-11-25T05:01:07.100Z,14.4
2022-11-25T05:02:23.450Z,14.4
2022-11-25T05:03:39.642Z,14.4
2022-11-25T05:04:55.830Z,14.4
2022-11-25T05:06:11.860Z,14.4
2022-11-25T05:07:28.055Z,14.4
2022-11-25T05:08:44.403Z,14.4
2022-11-25T05:09:59.597Z,14.4
2022-11-25T05:11:15.790Z,14.4
2022-11-25T05:12:31.977Z,14.4
2022-11-25T05:13:48.165Z,14.4
2022-11-25T05:15:04.359Z,14.4
2022-11-25T05:16:20.558Z,14.4
2022-11-25T05:17:35.756Z,14.4
2022-11-25T05:18:51.786Z,14.4
2022-11-25T05:20:08.131Z,14.4
2022-11-25T05:21:24.329Z,14.4
2022-11-25T05:22:40.512Z,14.4
2022-11-25T05:23:56.717Z,14.4
2022-11-25T05:25:12.900Z,14.4
2022-11-25T05:26:29.089Z,14.4
2022-11-25T05:27:45.119Z,14.4
2022-11-25T05:29:01.296Z,14.4
2022-11-25T05:30:17.494Z,14.4
2022-11-25T05:31:33.845Z,14.4
2022-11-25T05:32:50.035Z,14.4
2022-11-25T05:34:05.239Z,14.4
2022-11-25T05:35:21.417Z,14.4
2022-11-25T05:36:37.613Z,14.4
2022-11-25T05:37:53.633Z,14.4
2022-11-25T05:39:09.983Z,14.4
2022-11-25T05:40:26.192Z,14.4
2022-11-25T05:41:42.376Z,14.4
2022-11-25T05:42:58.557Z,14.4
2022-11-25T05:44:14.583Z,14.4
2022-11-25T05:45:30.939Z,14.4
2022-11-25T05:46:46.970Z,14.4
2022-11-25T05:48:03.154Z,14.4
2022-11-25T05:49:19.513Z,14.4
2022-11-25T05:50:34.549Z,14.4
2022-11-25T05:51:50.731Z,14.4
2022-11-25T05:53:06.930Z,14.4
2022-11-25T05:54:23.271Z,14.4
2022-11-25T05:55:39.466Z,14.4
2022-11-25T05:56:55.493Z,14.4
2022-11-25T05:58:11.839Z,14.4
2022-11-25T05:59:28.038Z,14.4
2022-11-25T06:00:44.050Z,14.4
2022-11-25T06:02:00.421Z,14.4
2022-11-25T06:03:16.611Z,14.4
2022-11-25T06:04:32.800Z,14.4
2022-11-25T06:05:48.982Z,14.4
2022-11-25T06:07:04.193Z,14.4
2022-11-25T06:08:20.196Z,14.4
2022-11-25T06:09:36.385Z,14.3
2022-11-25T06:10:52.748Z,14.3
2022-11-25T06:12:08.941Z,14.3
2022-11-25T06:13:25.142Z,14.3
2022-11-25T06:14:41.137Z,14.3
2022-11-25T06:15:57.511Z,14.3
2022-11-25T06:17:13.701Z,14.4
2022-11-25T06:18:29.710Z,14.4
2022-11-25T06:19:45.907Z,14.4
2022-11-25T06:21:02.262Z,14.4
2022-11-25T06:22:18.281Z,14.4
2022-11-25T06:23:33.485Z,14.4
2022-11-25T06:24:49.669Z,14.4
2022-11-25T06:26:06.046Z,14.4
2022-11-25T06:27:22.221Z,14.4
2022-11-25T06:28:38.239Z,14.4
2022-11-25T06:29:54.425Z,14.5
2022-11-25T06:31:10.789Z,14.5
2022-11-25T06:32:26.976Z,14.5
2022-11-25T06:33:43.170Z,14.5
2022-11-25T06:34:59.195Z,14.6
2022-11-25T06:36:15.549Z,14.6
2022-11-25T06:37:31.734Z,14.6
2022-11-25T06:38:47.756Z,14.6
2022-11-25T06:40:03.128Z,14.6
2022-11-25T06:41:19.329Z,14.6
2022-11-25T06:42:35.337Z,14.6
2022-11-25T06:43:51.517Z,14.6
2022-11-25T06:45:07.898Z,14.6
2022-11-25T06:46:24.076Z,14.6
2022-11-25T06:47:40.097Z,14.6
2022-11-25T06:48:56.462Z,14.6
2022-11-25T06:50:12.641Z,14.6
2022-11-25T06:51:28.846Z,14.6
2022-11-25T06:52:45.035Z,14.6
2022-11-25T06:54:01.034Z,14.6
2022-11-25T06:55:17.231Z,14.5
2022-11-25T06:56:32.605Z,14.5
2022-11-25T06:57:48.809Z,14.6
2022-11-25T06:59:04.988Z,14.5
2022-11-25T07:00:20.991Z,14.5
2022-11-25T07:01:37.186Z,14.5
2022-11-25T07:02:53.365Z,14.5
2022-11-25T07:04:09.758Z,14.5
2022-11-25T07:05:25.742Z,14.5
2022-11-25T07:06:42.121Z,14.5
2022-11-25T07:07:58.310Z,14.5
2022-11-25T07:09:14.511Z,14.5
2022-11-25T07:10:30.683Z,14.6
2022-11-25T07:11:46.701Z,14.5
2022-11-25T07:13:01.897Z,14.5
2022-11-25T07:14:18.273Z,14.5
2022-11-25T07:15:34.279Z,14.5
2022-11-25T07:16:50.653Z,14.5
2022-11-25T07:18:06.849Z,14.5
2022-11-25T07:19:23.030Z,14.5
2022-11-25T07:20:39.225Z,14.5
2022-11-25T07:21:55.417Z,14.5
2022-11-25T07:23:11.611Z,14.5
2022-11-25T07:24:27.789Z,14.5
2022-11-25T07:25:43.790Z,14.5
2022-11-25T07:27:00.169Z,14.5
2022-11-25T07:28:16.350Z,14.5
2022-11-25T07:29:31.372Z,14.5
2022-11-25T07:30:47.756Z,14.5
2022-11-25T07:32:03.746Z,14.5
2022-11-25T07:33:20.135Z,14.5
2022-11-25T07:34:36.140Z,14.5
2022-11-25T07:35:52.518Z,14.5
2022-11-25T07:37:08.705Z,14.5
2022-11-25T07:38:24.706Z,14.5
2022-11-25T07:39:40.879Z,14.6
2022-11-25T07:40:57.077Z,14.6
2022-11-25T07:42:13.463Z,14.5
2022-11-25T07:43:29.644Z,14.5
2022-11-25T07:44:45.635Z,14.5
2022-11-25T07:46:01.037Z,14.5
2022-11-25T07:47:17.026Z,14.5
2022-11-25T07:48:33.409Z,14.5
2022-11-25T07:49:49.413Z,14.6
2022-11-25T07:51:05.806Z,14.5
2022-11-25T07:52:21.977Z,14.5
2022-11-25T07:53:38.178Z,14.6
2022-11-25T07:54:54.165Z,14.6
2022-11-25T07:56:10.352Z,14.6
2022-11-25T07:57:26.736Z,14.6
2022-11-25T07:58:42.935Z,14.6
2022-11-25T07:59:59.125Z,14.6
2022-11-25T08:01:15.301Z,14.6
2022-11-25T08:02:30.318Z,14.6
2022-11-25T08:03:46.503Z,14.6
2022-11-25T08:05:02.696Z,14.6
2022-11-25T08:06:19.078Z,14.6
2022-11-25T08:07:35.270Z,14.6
2022-11-25T08:08:51.469Z,14.6
2022-11-25T08:10:07.658Z,14.6
2022-11-25T08:11:23.848Z,14.6
2022-11-25T08:12:40.021Z,14.6
2022-11-25T08:13:56.223Z,14.6
2022-11-25T08:15:12.207Z,14.6
2022-11-25T08:16:28.599Z,14.6
2022-11-25T08:17:44.780Z,14.6
2022-11-25T08:18:59.985Z,14.6
2022-11-25T08:20:16.175Z,14.6
2022-11-25T08:21:32.369Z,14.6
2022-11-25T08:22:48.552Z,14.6
2022-11-25T08:24:04.746Z,14.6
2022-11-25T08:25:20.945Z,14.6
2022-11-25T08:26:37.128Z,14.6
2022-11-25T08:27:53.316Z,14.6
2022-11-25T08:29:09.291Z,14.6
2022-11-25T08:30:25.481Z,14.6
2022-11-25T08:31:41.667Z,14.6
2022-11-25T08:32:57.858Z,14.6
2022-11-25T08:34:14.263Z,14.7
2022-11-25T08:35:29.262Z,14.7
2022-11-25T08:36:45.663Z,14.7
2022-11-25T08:38:01.636Z,14.7
2022-11-25T08:39:17.823Z,14.7
2022-11-25T08:40:34.009Z,14.7
2022-11-25T08:43:06.587Z,14.7
2022-11-25T08:44:22.569Z,14.7
2022-11-25T08:45:38.963Z,14.7
2022-11-25T08:46:55.152Z,14.7
2022-11-25T08:48:11.122Z,14.7
2022-11-25T08:49:27.520Z,14.7
2022-11-25T08:50:43.722Z,14.7
2022-11-25T08:51:58.923Z,14.7
2022-11-25T08:53:15.102Z,14.7
2022-11-25T08:54:31.086Z,14.7
2022-11-25T08:55:47.269Z,14.7
2022-11-25T08:57:03.675Z,14.7
2022-11-25T08:58:19.849Z,14.7
2022-11-25T08:59:35.839Z,14.7
2022-11-25T09:00:52.012Z,14.7
2022-11-25T09:02:08.425Z,14.7
2022-11-25T09:03:24.386Z,14.7
2022-11-25T09:04:40.582Z,14.8
2022-11-25T09:05:56.990Z,14.8
2022-11-25T09:07:12.956Z,14.8
2022-11-25T09:08:28.366Z,14.8
2022-11-25T09:09:44.340Z,14.8
2022-11-25T09:11:00.530Z,14.8
2022-11-25T09:12:16.932Z,14.8
2022-11-25T09:13:33.130Z,14.8
2022-11-25T09:14:49.093Z,14.8
2022-11-25T09:16:05.278Z,14.8
2022-11-25T09:17:21.680Z,14.8
2022-11-25T09:18:37.868Z,14.8
2022-11-25T09:19:53.837Z,14.8
2022-11-25T09:21:10.242Z,14.8
2022-11-25T09:22:26.214Z,14.8
2022-11-25T09:23:42.625Z,14.8
2022-11-25T09:24:57.614Z,14.8
2022-11-25T09:26:13.797Z,14.8
2022-11-25T09:27:30.206Z,14.8
2022-11-25T09:28:46.395Z,14.8
2022-11-25T09:30:02.579Z,14.8
2022-11-25T09:31:18.771Z,14.8
2022-11-25T09:32:33.762Z,14.9
2022-11-25T09:33:49.941Z,14.9
2022-11-25T09:35:06.339Z,14.9
2022-11-25T09:36:22.524Z,14.9
2022-11-25T09:37:38.729Z,14.9
2022-11-25T09:38:54.694Z,14.9
2022-11-25T09:40:10.871Z,14.9
2022-11-25T09:41:27.064Z,14.9
2022-11-25T09:42:43.479Z,14.9
2022-11-25T09:43:59.652Z,14.9
2022-11-25T09:45:15.617Z,14.9
2022-11-25T09:46:32.032Z,14.9
2022-11-25T09:47:48.229Z,14.9
2022-11-25T09:49:03.193Z,14.9
2022-11-25T09:50:19.619Z,14.9
2022-11-25T09:51:35.797Z,14.9
2022-11-25T09:52:51.766Z,14.9
2022-11-25T09:54:08.170Z,14.9
2022-11-25T09:55:24.362Z,14.9
2022-11-25T09:56:40.319Z,14.9
2022-11-25T09:57:56.506Z,14.9
2022-11-25T09:59:12.691Z,14.9
2022-11-25T10:00:28.875Z,14.9
2022-11-25T10:01:45.301Z,14.9
2022-11-25T10:03:01.478Z,14.9
2022-11-25T10:04:17.445Z,15
2022-11-25T10:05:32.875Z,15
2022-11-25T10:06:49.055Z,15
2022-11-25T10:08:05.241Z,15
2022-11-25T10:09:21.201Z,14.9
2022-11-25T10:10:37.402Z,14.9
2022-11-25T10:11:53.593Z,14.9
2022-11-25T10:13:10.001Z,14.9
2022-11-25T10:14:25.959Z,14.9
2022-11-25T10:15:42.371Z,14.9
2022-11-25T10:16:58.573Z,14.9
2022-11-25T10:18:14.531Z,15
2022-11-25T10:19:30.715Z,15
2022-11-25T10:20:47.129Z,15.1
2022-11-25T10:22:02.330Z,15.1
2022-11-25T10:23:18.298Z,15.1
2022-11-25T10:24:34.695Z,15.1
2022-11-25T10:25:50.883Z,15.1
2022-11-25T10:27:06.852Z,15.1
2022-11-25T10:28:23.268Z,15.1
2022-11-25T10:29:39.445Z,15.1
2022-11-25T10:30:55.643Z,15.1
2022-11-25T10:32:11.829Z,15
2022-11-25T10:33:28.014Z,15
2022-11-25T10:34:43.967Z,15.1
2022-11-25T10:36:00.167Z,15.1
2022-11-25T10:37:16.355Z,15.1
2022-11-25T10:38:31.776Z,15.2
2022-11-25T10:39:47.970Z,15.2
2022-11-25T10:41:04.161Z,15.2
2022-11-25T10:42:20.115Z,15.2
2022-11-25T10:43:36.531Z,15.2
2022-11-25T10:44:52.713Z,15.3
2022-11-25T10:46:08.666Z,15.2
2022-11-25T10:47:25.093Z,15.2
2022-11-25T10:48:41.273Z,15.2
2022-11-25T10:49:57.242Z,15.2
2022-11-25T10:51:13.417Z,15.2
2022-11-25T10:52:29.835Z,15.1
2022-11-25T10:53:45.790Z,15.1
2022-11-25T10:55:00.996Z,15.1
2022-11-25T10:56:17.429Z,15.1
2022-11-25T10:57:33.365Z,15.2
2022-11-25T10:58:49.566Z,15.2
2022-11-25T11:00:05.994Z,15.3
2022-11-25T11:01:21.927Z,15.3
2022-11-25T11:02:38.354Z,15.3
2022-11-25T11:03:54.543Z,15.3
2022-11-25T11:05:10.739Z,15.2
2022-11-25T11:06:26.687Z,15.2
2022-11-25T11:07:42.868Z,15.2
2022-11-25T11:08:59.294Z,15.2
2022-11-25T11:10:15.256Z,15.2
2022-11-25T11:11:30.691Z,15.2
2022-11-25T11:12:46.628Z,15.2
2022-11-25T11:14:03.056Z,15.1
2022-11-25T11:15:19.253Z,15.1
2022-11-25T11:16:35.432Z,15.1
2022-11-25T11:17:51.618Z,15.1
2022-11-25T11:19:07.811Z,15.1
2022-11-25T11:20:23.758Z,15.1
2022-11-25T11:21:40.194Z,15.1
2022-11-25T11:22:56.376Z,15.2
2022-11-25T11:24:12.318Z,15.2
2022-11-25T11:25:28.757Z,15.2
2022-11-25T11:26:44.945Z,15.1
2022-11-25T11:27:59.904Z,15.1
2022-11-25T11:29:16.331Z,15.1
2022-11-25T11:30:32.275Z,15.1
2022-11-25T11:31:48.708Z,15.1
2022-11-25T11:33:04.891Z,15.1
2022-11-25T11:34:20.825Z,15.1
2022-11-25T11:35:37.022Z,15.1
2022-11-25T11:36:53.463Z,15.1
2022-11-25T11:38:09.398Z,15.2
2022-11-25T11:39:25.576Z,15.1
2022-11-25T11:40:41.770Z,15.1
2022-11-25T11:41:58.204Z,15.1
2022-11-25T11:43:14.153Z,15.1
2022-11-25T11:44:29.603Z,15.2
2022-11-25T11:45:45.775Z,15.2
2022-11-25T11:47:01.972Z,15.2
2022-11-25T11:48:18.148Z,15.2
2022-11-25T11:49:34.350Z,15.2
2022-11-25T11:50:50.534Z,15.2
2022-11-25T11:52:06.722Z,15.2
2022-11-25T11:53:22.667Z,15.3
2022-11-25T11:54:39.102Z,15.3
2022-11-25T11:55:55.024Z,15.3
2022-11-25T11:57:11.475Z,15.3
2022-11-25T11:58:27.662Z,15.3
2022-11-25T11:59:43.841Z,15.3
2022-11-25T12:00:59.051Z,15.3
2022-11-25T12:02:15.237Z,15.3
2022-11-25T12:03:31.418Z,15.3
2022-11-25T12:04:47.619Z,15.3
2022-11-25T12:06:03.549Z,15.3
2022-11-25T12:07:19.977Z,15.3
2022-11-25T12:08:35.919Z,15.3
2022-11-25T12:09:52.366Z,15.3
2022-11-25T12:11:08.544Z,15.2
2022-11-25T12:12:24.733Z,15.2
2022-11-25T12:13:40.670Z,15.2
2022-11-25T12:14:57.101Z,15.2
2022-11-25T12:16:13.307Z,15.2
2022-11-25T12:17:28.496Z,15.2
2022-11-25T12:18:44.689Z,15.2
2022-11-25T12:20:00.875Z,15.2
2022-11-25T12:21:16.800Z,15.2
2022-11-25T12:22:33.241Z,15.2
2022-11-25T12:23:49.176Z,15.2
2022-11-25T12:25:05.623Z,15.2
2022-11-25T12:26:21.814Z,15.2
2022-11-25T12:27:37.738Z,15.2
2022-11-25T12:28:54.195Z,15.2
2022-11-25T12:30:10.112Z,15.2
2022-11-25T12:31:26.298Z,15.3
2022-11-25T12:32:42.747Z,15.3
2022-11-25T12:33:57.950Z,15.3
2022-11-25T12:35:14.143Z,15.3
2022-11-25T12:36:30.063Z,15.4
2022-11-25T12:37:46.520Z,15.4
2022-11-25T12:39:02.702Z,15.4
2022-11-25T12:40:18.622Z,15.4
2022-11-25T12:41:34.816Z,15.3
2022-11-25T12:42:50.998Z,15.3
2022-11-25T12:44:07.197Z,15.3
2022-11-25T12:45:23.632Z,15.3
2022-11-25T12:46:39.819Z,15.3
2022-11-25T12:47:56.024Z,15.3
2022-11-25T12:49:11.942Z,15.3
2022-11-25T12:50:27.148Z,15.3
2022-11-25T12:51:43.338Z,15.3
2022-11-25T12:52:59.788Z,15.3
2022-11-25T12:54:15.966Z,15.3
2022-11-25T12:55:31.890Z,15.3
2022-11-25T12:56:48.353Z,15.3
2022-11-25T12:58:04.533Z,15.3
2022-11-25T12:59:20.709Z,15.3
2022-11-25T13:00:36.913Z,15.2
2022-11-25T13:01:53.083Z,15.2
2022-11-25T13:03:09.283Z,15.2
2022-11-25T13:04:25.198Z,15.2
2022-11-25T13:05:41.648Z,15.2
2022-11-25T13:06:56.588Z,15.2
2022-11-25T13:08:12.774Z,15.2
2022-11-25T13:09:29.226Z,15.2
2022-11-25T13:10:45.146Z,15.2
2022-11-25T13:12:01.603Z,15.2
2022-11-25T13:13:17.797Z,15.2
2022-11-25T13:14:33.704Z,15.2
2022-11-25T13:15:50.163Z,15.2
2022-11-25T13:17:06.359Z,15.2
2022-11-25T13:18:22.285Z,15.2
2022-11-25T13:19:38.727Z,15.2
2022-11-25T13:20:54.657Z,15.1
2022-11-25T13:22:10.843Z,15.1
2022-11-25T13:23:26.315Z,15.1
2022-11-25T13:24:42.235Z,15.1
2022-11-25T13:25:58.403Z,15.1
2022-11-25T13:27:14.607Z,15.1
2022-11-25T13:28:31.051Z,15.1
2022-11-25T13:29:47.250Z,15.1
2022-11-25T13:31:03.159Z,15.1
2022-11-25T13:32:19.628Z,15.1
2022-11-25T13:33:35.530Z,15.1
2022-11-25T13:34:51.995Z,15.1
2022-11-25T13:36:08.177Z,15.1
2022-11-25T13:37:24.107Z,15.1
2022-11-25T13:38:40.550Z,15.1
2022-11-25T13:39:55.766Z,15.1
2022-11-25T13:41:11.958Z,15.1
2022-11-25T13:42:27.863Z,15.1
2022-11-25T13:43:44.334Z,15.1
2022-11-25T13:45:00.519Z,15.1
2022-11-25T13:46:16.419Z,15
2022-11-25T13:47:31.916Z,15.1
2022-11-25T13:48:48.098Z,15.1
2022-11-25T13:50:04.016Z,15
2022-11-25T13:51:20.467Z,15.1
2022-11-25T13:52:36.653Z,15
2022-11-25T13:53:52.845Z,15.1
2022-11-25T13:55:09.040Z,15
2022-11-25T13:56:25.229Z,15
2022-11-25T13:57:41.409Z,15
2022-11-25T13:58:57.318Z,15
2022-11-25T14:00:13.496Z,15
2022-11-25T14:01:29.964Z,15
2022-11-25T14:02:45.884Z,15
2022-11-25T14:04:01.362Z,15
2022-11-25T14:05:17.273Z,15
2022-11-25T14:06:33.464Z,15
2022-11-25T14:07:49.927Z,15
2022-11-25T14:09:06.112Z,15
2022-11-25T14:10:22.019Z,15
2022-11-25T14:11:38.204Z,15
2022-11-25T14:12:54.393Z,15
2022-11-25T14:14:10.587Z,15
2022-11-25T14:15:26.768Z,15
2022-11-25T14:16:43.225Z,15
2022-11-25T14:17:59.429Z,15
2022-11-25T14:19:15.607Z,14.9
2022-11-25T14:20:30.821Z,15
2022-11-25T14:21:47.004Z,15
2022-11-25T14:23:02.912Z,15
2022-11-25T14:24:19.379Z,15
2022-11-25T14:25:35.559Z,14.9
2022-11-25T14:26:51.756Z,14.9
2022-11-25T14:28:07.942Z,15
2022-11-25T14:29:24.122Z,14.9
2022-11-25T14:30:40.029Z,14.9
2022-11-25T14:31:56.000Z,14.9
2022-11-25T14:33:12.684Z,14.9
2022-11-25T14:34:28.587Z,14.9
2022-11-25T14:35:44.783Z,14.9
2022-11-25T14:36:59.969Z,14.9
2022-11-25T14:38:16.158Z,14.9
2022-11-25T14:39:32.349Z,14.9
2022-11-25T14:40:48.836Z,14.9
2022-11-25T14:42:05.022Z,14.9
2022-11-25T14:43:21.195Z,14.9
2022-11-25T14:44:37.391Z,14.9
2022-11-25T14:45:53.569Z,14.9
2022-11-25T14:47:09.761Z,14.9
2022-11-25T14:48:25.948Z,14.9
2022-11-25T14:49:41.841Z,14.9
2022-11-25T14:50:58.322Z,14.9
2022-11-25T14:52:14.519Z,14.9
2022-11-25T14:53:29.431Z,14.8
2022-11-25T14:54:45.907Z,14.8
2022-11-25T14:56:02.090Z,14.8
2022-11-25T14:57:18.288Z,14.8
2022-11-25T14:58:34.177Z,14.8
2022-11-25T14:59:50.649Z,14.8
2022-11-25T15:01:06.842Z,14.8
2022-11-25T15:02:22.732Z,14.9
2022-11-25T15:03:39.217Z,14.9
2022-11-25T15:04:55.115Z,14.9
2022-11-25T15:06:11.598Z,14.9
2022-11-25T15:07:27.787Z,14.9
2022-11-25T15:08:43.663Z,14.9
2022-11-25T15:09:58.876Z,14.9
2022-11-25T15:11:15.367Z,14.9
2022-11-25T15:12:31.538Z,14.9
2022-11-25T15:13:47.444Z,14.9
2022-11-25T15:15:03.623Z,14.9
2022-11-25T15:16:19.820Z,14.9
2022-11-25T15:17:36.293Z,14.9
2022-11-25T15:18:52.486Z,14.8
2022-11-25T15:20:08.673Z,14.9
2022-11-25T15:21:24.568Z,14.8
2022-11-25T15:22:40.744Z,14.9
2022-11-25T15:23:57.231Z,14.8
2022-11-25T15:25:13.425Z,14.8
2022-11-25T15:26:28.629Z,14.8
2022-11-25T15:27:44.512Z,14.8
2022-11-25T15:29:00.992Z,14.8
2022-11-25T15:30:17.183Z,14.8
2022-11-25T15:31:33.373Z,14.8
2022-11-25T15:32:49.557Z,14.8
2022-11-25T15:34:05.756Z,14.8
2022-11-25T15:35:21.927Z,14.8
2022-11-25T15:36:37.827Z,14.8
2022-11-25T15:37:54.305Z,14.8
2022-11-25T15:39:10.194Z,14.8
2022-11-25T15:40:26.386Z,14.8
2022-11-25T15:41:42.870Z,14.8
2022-11-25T15:42:58.074Z,14.8
2022-11-25T15:44:13.965Z,14.8
2022-11-25T15:45:30.153Z,14.8
2022-11-25T15:46:46.340Z,14.8
2022-11-25T15:48:02.823Z,14.8
2022-11-25T15:49:19.009Z,14.8
2022-11-25T15:50:35.201Z,14.8
2022-11-25T15:51:51.397Z,14.8
2022-11-25T15:53:07.267Z,14.8
2022-11-25T15:54:23.465Z,14.8
2022-11-25T15:55:39.949Z,14.8
2022-11-25T15:56:56.140Z,14.8
2022-11-25T15:58:12.322Z,14.8
2022-11-25T15:59:27.534Z,14.8
2022-11-25T16:00:43.721Z,14.8
2022-11-25T16:01:59.595Z,14.8
2022-11-25T16:03:15.788Z,14.8
2022-11-25T16:04:32.270Z,14.8
2022-11-25T16:05:48.458Z,14.8
2022-11-25T16:07:04.354Z,14.8
2022-11-25T16:08:20.841Z,14.8
2022-11-25T16:10:52.917Z,14.8
2022-11-25T16:12:09.399Z,14.8
2022-11-25T16:13:25.581Z,14.8
2022-11-25T16:14:41.769Z,14.8
2022-11-25T16:15:56.977Z,14.8
2022-11-25T16:17:12.864Z,14.8
2022-11-25T16:18:29.052Z,14.8
2022-11-25T16:19:45.551Z,14.8
2022-11-25T16:21:01.720Z,14.8
2022-11-25T16:22:17.599Z,14.8
2022-11-25T16:23:34.105Z,14.8
2022-11-25T16:24:49.990Z,14.8
2022-11-25T16:26:06.481Z,14.8
2022-11-25T16:27:22.672Z,14.8
2022-11-25T16:28:38.846Z,14.8
2022-11-25T16:29:55.037Z,14.8
2022-11-25T16:31:10.917Z,14.8
2022-11-25T16:32:26.126Z,14.8
2022-11-25T16:33:42.310Z,14.8
2022-11-25T16:34:58.817Z,14.8
2022-11-25T16:36:15.005Z,14.8
2022-11-25T16:37:31.193Z,14.8
2022-11-25T16:38:47.363Z,14.8
2022-11-25T16:40:03.561Z,14.8
2022-11-25T16:41:19.744Z,14.8
2022-11-25T16:42:35.620Z,14.8
2022-11-25T16:43:51.805Z,14.8
2022-11-25T16:45:08.313Z,14.8
2022-11-25T16:46:24.491Z,14.8
2022-11-25T16:47:40.676Z,14.8
2022-11-25T16:48:55.881Z,14.8
2022-11-25T16:50:12.063Z,14.8
2022-11-25T16:51:28.263Z,14.8
2022-11-25T16:52:44.448Z,14.8
2022-11-25T16:54:00.629Z,14.8
2022-11-25T16:55:16.503Z,14.8
2022-11-25T16:56:32.696Z,14.8
2022-11-25T16:57:49.193Z,14.7
2022-11-25T16:59:05.383Z,14.8